sensor_id;sensor_type;location;lat;lon;timestamp;P1;durP1;ratioP1;P2;durP2;ratioP2
86604;SDS011;77269;49.892;17.884;2024-03-23T00:53:20;7.68;;;4.95;;
86604;SDS011;77269;49.892;17.884;2024-03-23T00:54:10;6.72;;;4.78;;
86604;SDS011;77269;49.892;17.884;2024-03-23T00:55:00;6.25;;;4.68;;
86604;SDS011;77269;49.892;17.884;2024-03-23T00:55:51;7.07;;;4.82;;
86604;SDS011;77269;49.892;17.884;2024-03-23T00:56:42;6.03;;;4.20;;
86604;SDS011;77269;49.892;17.884;2024-03-23T00:57:32;5.65;;;3.72;;
86604;SDS011;77269;49.892;17.884;2024-03-23T00:59:21;5.78;;;4.45;;
86604;SDS011;77269;49.892;17.884;2024-03-23T01:00:12;7.97;;;5.03;;
86604;SDS011;77269;49.892;17.884;2024-03-23T01:01:03;7.35;;;4.85;;
86604;SDS011;77269;49.892;17.884;2024-03-23T01:01:54;6.18;;;4.78;;
86604;SDS011;77269;49.892;17.884;2024-03-23T01:02:44;6.00;;;4.40;;
86604;SDS011;77269;49.892;17.884;2024-03-23T01:03:35;6.60;;;4.60;;
86604;SDS011;77269;49.892;17.884;2024-03-23T01:04:26;8.52;;;5.40;;
86604;SDS011;77269;49.892;17.884;2024-03-23T01:05:16;7.93;;;5.30;;
86604;SDS011;77269;49.892;17.884;2024-03-23T01:06:07;7.38;;;5.40;;
86604;SDS011;77269;49.892;17.884;2024-03-23T01:06:57;7.93;;;5.65;;
86604;SDS011;77269;49.892;17.884;2024-03-23T01:07:48;8.25;;;5.60;;
86604;SDS011;77269;49.892;17.884;2024-03-23T01:08:38;7.70;;;5.72;;
86604;SDS011;77269;49.892;17.884;2024-03-23T01:09:29;7.43;;;4.93;;
86604;SDS011;77269;49.892;17.884;2024-03-23T01:10:19;7.93;;;5.78;;
86604;SDS011;77269;49.892;17.884;2024-03-23T01:11:10;7.70;;;5.85;;
86604;SDS011;77269;49.892;17.884;2024-03-23T01:12:00;7.63;;;5.05;;
86604;SDS011;77269;49.892;17.884;2024-03-23T01:12:51;6.75;;;5.53;;
86604;SDS011;77269;49.892;17.884;2024-03-23T01:13:41;9.18;;;5.15;;
86604;SDS011;77269;49.892;17.884;2024-03-23T01:14:32;7.53;;;5.22;;
86604;SDS011;77269;49.892;17.884;2024-03-23T01:15:22;7.68;;;5.05;;
86604;SDS011;77269;49.892;17.884;2024-03-23T01:16:13;7.82;;;4.93;;
86604;SDS011;77269;49.892;17.884;2024-03-23T01:17:03;6.93;;;4.65;;
86604;SDS011;77269;49.892;17.884;2024-03-23T01:17:54;7.20;;;5.10;;
86604;SDS011;77269;49.892;17.884;2024-03-23T01:18:44;7.60;;;5.30;;
86604;SDS011;77269;49.892;17.884;2024-03-23T01:19:35;8.27;;;5.20;;
86604;SDS011;77269;49.892;17.884;2024-03-23T01:20:25;8.10;;;5.22;;
86604;SDS011;77269;49.892;17.884;2024-03-23T01:21:16;6.63;;;5.00;;
86604;SDS011;77269;49.892;17.884;2024-03-23T01:22:07;7.43;;;4.80;;
86604;SDS011;77269;49.892;17.884;2024-03-23T01:22:57;6.75;;;4.60;;
86604;SDS011;77269;49.892;17.884;2024-03-23T01:23:48;6.70;;;4.50;;
86604;SDS011;77269;49.892;17.884;2024-03-23T01:24:38;6.45;;;4.72;;
86604;SDS011;77269;49.892;17.884;2024-03-23T01:25:29;6.80;;;4.90;;
86604;SDS011;77269;49.892;17.884;2024-03-23T01:26:19;7.90;;;5.28;;
86604;SDS011;77269;49.892;17.884;2024-03-23T01:27:10;6.45;;;4.60;;
86604;SDS011;77269;49.892;17.884;2024-03-23T01:28:00;6.05;;;4.32;;
86604;SDS011;77269;49.892;17.884;2024-03-23T01:28:51;6.05;;;4.68;;
86604;SDS011;77269;49.892;17.884;2024-03-23T01:29:41;6.45;;;4.78;;
86604;SDS011;77269;49.892;17.884;2024-03-23T01:30:35;6.78;;;4.28;;
86604;SDS011;77269;49.892;17.884;2024-03-23T01:31:25;6.82;;;4.80;;
86604;SDS011;77269;49.892;17.884;2024-03-23T01:32:16;6.47;;;4.05;;
86604;SDS011;77269;49.892;17.884;2024-03-23T01:33:06;5.60;;;4.13;;
86604;SDS011;77269;49.892;17.884;2024-03-23T01:33:57;7.82;;;4.88;;
86604;SDS011;77269;49.892;17.884;2024-03-23T01:34:47;6.55;;;4.47;;
86604;SDS011;77269;49.892;17.884;2024-03-23T01:35:38;6.45;;;4.68;;
86604;SDS011;77269;49.892;17.884;2024-03-23T01:36:28;6.45;;;4.60;;
86604;SDS011;77269;49.892;17.884;2024-03-23T01:37:19;6.28;;;4.53;;
86604;SDS011;77269;49.892;17.884;2024-03-23T01:38:09;6.15;;;4.45;;
86604;SDS011;77269;49.892;17.884;2024-03-23T01:39:00;5.93;;;4.18;;
86604;SDS011;77269;49.892;17.884;2024-03-23T01:39:50;6.10;;;4.40;;
86604;SDS011;77269;49.892;17.884;2024-03-23T01:40:41;5.50;;;4.03;;
86604;SDS011;77269;49.892;17.884;2024-03-23T01:41:31;6.30;;;3.90;;
86604;SDS011;77269;49.892;17.884;2024-03-23T01:42:22;6.88;;;5.03;;
86604;SDS011;77269;49.892;17.884;2024-03-23T01:43:12;5.35;;;3.95;;
86604;SDS011;77269;49.892;17.884;2024-03-23T01:44:04;6.15;;;4.72;;
86604;SDS011;77269;49.892;17.884;2024-03-23T01:45:45;6.38;;;4.90;;
86604;SDS011;77269;49.892;17.884;2024-03-23T01:46:39;7.80;;;4.63;;
86604;SDS011;77269;49.892;17.884;2024-03-23T01:47:30;7.07;;;4.72;;
86604;SDS011;77269;49.892;17.884;2024-03-23T01:48:21;6.00;;;4.55;;
86604;SDS011;77269;49.892;17.884;2024-03-23T01:49:11;6.72;;;4.57;;
86604;SDS011;77269;49.892;17.884;2024-03-23T01:50:02;5.22;;;3.97;;
86604;SDS011;77269;49.892;17.884;2024-03-23T01:50:52;6.25;;;4.35;;
86604;SDS011;77269;49.892;17.884;2024-03-23T01:51:43;6.65;;;4.18;;
86604;SDS011;77269;49.892;17.884;2024-03-23T01:52:34;6.57;;;4.80;;
86604;SDS011;77269;49.892;17.884;2024-03-23T01:53:25;6.25;;;4.65;;
86604;SDS011;77269;49.892;17.884;2024-03-23T01:54:15;6.35;;;4.15;;
86604;SDS011;77269;49.892;17.884;2024-03-23T01:55:06;5.75;;;4.25;;
86604;SDS011;77269;49.892;17.884;2024-03-23T01:55:57;6.65;;;4.53;;
86604;SDS011;77269;49.892;17.884;2024-03-23T01:56:47;7.13;;;4.60;;
86604;SDS011;77269;49.892;17.884;2024-03-23T01:57:38;6.63;;;4.70;;
86604;SDS011;77269;49.892;17.884;2024-03-23T01:58:29;7.80;;;5.43;;
86604;SDS011;77269;49.892;17.884;2024-03-23T01:59:20;8.07;;;5.35;;
86604;SDS011;77269;49.892;17.884;2024-03-23T02:00:10;7.10;;;4.88;;
86604;SDS011;77269;49.892;17.884;2024-03-23T02:01:04;7.70;;;5.32;;
86604;SDS011;77269;49.892;17.884;2024-03-23T02:01:54;7.63;;;5.25;;
86604;SDS011;77269;49.892;17.884;2024-03-23T02:02:45;7.15;;;4.63;;
86604;SDS011;77269;49.892;17.884;2024-03-23T02:03:36;6.10;;;4.63;;
86604;SDS011;77269;49.892;17.884;2024-03-23T02:04:26;6.30;;;4.75;;
86604;SDS011;77269;49.892;17.884;2024-03-23T02:05:17;7.25;;;5.22;;
86604;SDS011;77269;49.892;17.884;2024-03-23T02:06:08;7.43;;;4.90;;
86604;SDS011;77269;49.892;17.884;2024-03-23T02:06:58;7.45;;;4.88;;
86604;SDS011;77269;49.892;17.884;2024-03-23T02:07:49;7.57;;;4.65;;
86604;SDS011;77269;49.892;17.884;2024-03-23T02:08:41;6.57;;;4.90;;
86604;SDS011;77269;49.892;17.884;2024-03-23T02:09:31;8.20;;;5.03;;
86604;SDS011;77269;49.892;17.884;2024-03-23T02:10:21;6.95;;;4.72;;
86604;SDS011;77269;49.892;17.884;2024-03-23T02:11:12;7.70;;;4.68;;
86604;SDS011;77269;49.892;17.884;2024-03-23T02:12:03;7.13;;;4.93;;
86604;SDS011;77269;49.892;17.884;2024-03-23T02:12:53;6.40;;;4.47;;
86604;SDS011;77269;49.892;17.884;2024-03-23T02:13:44;7.22;;;4.70;;
86604;SDS011;77269;49.892;17.884;2024-03-23T02:14:35;7.03;;;4.55;;
86604;SDS011;77269;49.892;17.884;2024-03-23T02:15:25;7.35;;;4.63;;
86604;SDS011;77269;49.892;17.884;2024-03-23T02:16:15;6.35;;;4.63;;
86604;SDS011;77269;49.892;17.884;2024-03-23T02:17:06;6.32;;;4.20;;
86604;SDS011;77269;49.892;17.884;2024-03-23T02:17:56;6.65;;;4.45;;
86604;SDS011;77269;49.892;17.884;2024-03-23T02:18:47;6.88;;;4.72;;
86604;SDS011;77269;49.892;17.884;2024-03-23T02:19:37;6.00;;;4.57;;
86604;SDS011;77269;49.892;17.884;2024-03-23T02:20:28;7.03;;;4.47;;
86604;SDS011;77269;49.892;17.884;2024-03-23T02:21:18;7.13;;;4.60;;
86604;SDS011;77269;49.892;17.884;2024-03-23T02:22:09;6.97;;;4.60;;
86604;SDS011;77269;49.892;17.884;2024-03-23T02:22:59;7.05;;;4.80;;
86604;SDS011;77269;49.892;17.884;2024-03-23T02:23:50;6.45;;;4.35;;
86604;SDS011;77269;49.892;17.884;2024-03-23T02:24:40;7.15;;;4.93;;
86604;SDS011;77269;49.892;17.884;2024-03-23T02:25:31;6.88;;;5.03;;
86604;SDS011;77269;49.892;17.884;2024-03-23T02:26:22;6.93;;;5.22;;
86604;SDS011;77269;49.892;17.884;2024-03-23T02:27:13;7.47;;;5.35;;
86604;SDS011;77269;49.892;17.884;2024-03-23T02:28:04;7.82;;;5.00;;
86604;SDS011;77269;49.892;17.884;2024-03-23T02:28:55;7.97;;;5.47;;
86604;SDS011;77269;49.892;17.884;2024-03-23T02:29:46;7.68;;;5.03;;
86604;SDS011;77269;49.892;17.884;2024-03-23T02:30:36;7.45;;;5.10;;
86604;SDS011;77269;49.892;17.884;2024-03-23T02:31:27;6.97;;;4.68;;
86604;SDS011;77269;49.892;17.884;2024-03-23T02:32:17;7.85;;;5.05;;
86604;SDS011;77269;49.892;17.884;2024-03-23T02:33:08;7.72;;;5.07;;
86604;SDS011;77269;49.892;17.884;2024-03-23T02:33:59;6.97;;;4.85;;
86604;SDS011;77269;49.892;17.884;2024-03-23T02:34:49;8.20;;;4.88;;
86604;SDS011;77269;49.892;17.884;2024-03-23T02:35:40;6.50;;;5.30;;
86604;SDS011;77269;49.892;17.884;2024-03-23T02:36:30;6.07;;;4.57;;
86604;SDS011;77269;49.892;17.884;2024-03-23T02:37:21;7.65;;;4.78;;
86604;SDS011;77269;49.892;17.884;2024-03-23T02:38:11;6.85;;;4.65;;
86604;SDS011;77269;49.892;17.884;2024-03-23T02:39:02;8.55;;;5.00;;
86604;SDS011;77269;49.892;17.884;2024-03-23T02:39:52;8.45;;;4.97;;
86604;SDS011;77269;49.892;17.884;2024-03-23T02:40:43;8.90;;;5.65;;
86604;SDS011;77269;49.892;17.884;2024-03-23T02:41:33;6.75;;;5.00;;
86604;SDS011;77269;49.892;17.884;2024-03-23T02:42:24;7.90;;;5.03;;
86604;SDS011;77269;49.892;17.884;2024-03-23T02:43:14;7.05;;;5.13;;
86604;SDS011;77269;49.892;17.884;2024-03-23T02:44:05;8.10;;;5.30;;
86604;SDS011;77269;49.892;17.884;2024-03-23T02:44:55;8.23;;;5.05;;
86604;SDS011;77269;49.892;17.884;2024-03-23T02:45:46;7.40;;;5.30;;
86604;SDS011;77269;49.892;17.884;2024-03-23T02:46:37;6.40;;;4.50;;
86604;SDS011;77269;49.892;17.884;2024-03-23T02:47:28;6.80;;;4.80;;
86604;SDS011;77269;49.892;17.884;2024-03-23T02:48:18;6.70;;;4.57;;
86604;SDS011;77269;49.892;17.884;2024-03-23T02:49:09;7.47;;;4.57;;
86604;SDS011;77269;49.892;17.884;2024-03-23T02:50:00;6.25;;;4.57;;
86604;SDS011;77269;49.892;17.884;2024-03-23T02:50:50;6.40;;;4.30;;
86604;SDS011;77269;49.892;17.884;2024-03-23T02:51:40;7.13;;;4.85;;
86604;SDS011;77269;49.892;17.884;2024-03-23T02:52:31;6.75;;;5.13;;
86604;SDS011;77269;49.892;17.884;2024-03-23T02:53:22;7.18;;;4.88;;
86604;SDS011;77269;49.892;17.884;2024-03-23T02:54:12;7.07;;;4.38;;
86604;SDS011;77269;49.892;17.884;2024-03-23T02:55:03;7.90;;;5.25;;
86604;SDS011;77269;49.892;17.884;2024-03-23T02:55:54;5.82;;;4.28;;
86604;SDS011;77269;49.892;17.884;2024-03-23T02:56:44;6.28;;;4.70;;
86604;SDS011;77269;49.892;17.884;2024-03-23T02:57:35;5.97;;;4.20;;
86604;SDS011;77269;49.892;17.884;2024-03-23T02:58:25;8.38;;;4.80;;
86604;SDS011;77269;49.892;17.884;2024-03-23T02:59:16;5.32;;;4.15;;
86604;SDS011;77269;49.892;17.884;2024-03-23T03:00:06;5.10;;;4.05;;
86604;SDS011;77269;49.892;17.884;2024-03-23T03:00:57;6.13;;;4.45;;
86604;SDS011;77269;49.892;17.884;2024-03-23T03:01:48;7.20;;;4.75;;
86604;SDS011;77269;49.892;17.884;2024-03-23T03:02:38;6.40;;;4.50;;
86604;SDS011;77269;49.892;17.884;2024-03-23T03:03:29;5.28;;;3.97;;
86604;SDS011;77269;49.892;17.884;2024-03-23T03:04:19;6.18;;;3.80;;
86604;SDS011;77269;49.892;17.884;2024-03-23T03:05:10;5.72;;;3.97;;
86604;SDS011;77269;49.892;17.884;2024-03-23T03:06:00;7.90;;;4.95;;
86604;SDS011;77269;49.892;17.884;2024-03-23T03:06:51;8.05;;;4.38;;
86604;SDS011;77269;49.892;17.884;2024-03-23T03:07:41;7.03;;;4.88;;
86604;SDS011;77269;49.892;17.884;2024-03-23T03:08:32;7.65;;;5.20;;
86604;SDS011;77269;49.892;17.884;2024-03-23T03:09:23;8.98;;;5.40;;
86604;SDS011;77269;49.892;17.884;2024-03-23T03:10:13;8.10;;;5.38;;
86604;SDS011;77269;49.892;17.884;2024-03-23T03:11:04;6.50;;;4.72;;
86604;SDS011;77269;49.892;17.884;2024-03-23T03:11:54;7.32;;;5.35;;
86604;SDS011;77269;49.892;17.884;2024-03-23T03:12:45;7.45;;;4.88;;
86604;SDS011;77269;49.892;17.884;2024-03-23T03:13:35;7.07;;;4.78;;
86604;SDS011;77269;49.892;17.884;2024-03-23T03:14:26;7.30;;;4.75;;
86604;SDS011;77269;49.892;17.884;2024-03-23T03:15:16;6.53;;;4.50;;
86604;SDS011;77269;49.892;17.884;2024-03-23T03:16:10;7.43;;;5.53;;
86604;SDS011;77269;49.892;17.884;2024-03-23T03:17:01;8.45;;;5.43;;
86604;SDS011;77269;49.892;17.884;2024-03-23T03:17:51;7.00;;;5.13;;
86604;SDS011;77269;49.892;17.884;2024-03-23T03:18:42;7.78;;;5.45;;
86604;SDS011;77269;49.892;17.884;2024-03-23T03:19:32;5.88;;;4.88;;
86604;SDS011;77269;49.892;17.884;2024-03-23T03:20:23;7.20;;;5.30;;
86604;SDS011;77269;49.892;17.884;2024-03-23T03:21:13;7.57;;;5.03;;
86604;SDS011;77269;49.892;17.884;2024-03-23T03:22:07;7.13;;;4.72;;
86604;SDS011;77269;49.892;17.884;2024-03-23T03:22:57;8.02;;;5.15;;
86604;SDS011;77269;49.892;17.884;2024-03-23T03:23:47;7.10;;;4.97;;
86604;SDS011;77269;49.892;17.884;2024-03-23T03:24:38;7.82;;;5.32;;
86604;SDS011;77269;49.892;17.884;2024-03-23T03:25:29;10.15;;;6.25;;
86604;SDS011;77269;49.892;17.884;2024-03-23T03:26:19;8.52;;;6.05;;
86604;SDS011;77269;49.892;17.884;2024-03-23T03:27:09;8.45;;;5.97;;
86604;SDS011;77269;49.892;17.884;2024-03-23T03:28:00;8.05;;;5.95;;
86604;SDS011;77269;49.892;17.884;2024-03-23T03:28:50;8.13;;;5.22;;
86604;SDS011;77269;49.892;17.884;2024-03-23T03:29:41;8.00;;;5.50;;
86604;SDS011;77269;49.892;17.884;2024-03-23T03:30:32;7.93;;;5.82;;
86604;SDS011;77269;49.892;17.884;2024-03-23T03:31:22;8.32;;;5.30;;
86604;SDS011;77269;49.892;17.884;2024-03-23T03:32:12;8.25;;;5.45;;
86604;SDS011;77269;49.892;17.884;2024-03-23T03:33:03;6.78;;;4.80;;
86604;SDS011;77269;49.892;17.884;2024-03-23T03:33:54;7.70;;;5.50;;
86604;SDS011;77269;49.892;17.884;2024-03-23T03:34:44;6.68;;;5.07;;
86604;SDS011;77269;49.892;17.884;2024-03-23T03:35:34;7.75;;;5.47;;
86604;SDS011;77269;49.892;17.884;2024-03-23T03:36:25;7.00;;;5.10;;
86604;SDS011;77269;49.892;17.884;2024-03-23T03:37:18;7.90;;;5.72;;
86604;SDS011;77269;49.892;17.884;2024-03-23T03:38:08;7.38;;;4.97;;
86604;SDS011;77269;49.892;17.884;2024-03-23T03:38:59;7.05;;;5.03;;
86604;SDS011;77269;49.892;17.884;2024-03-23T03:39:49;6.28;;;5.00;;
86604;SDS011;77269;49.892;17.884;2024-03-23T03:40:41;6.75;;;4.65;;
86604;SDS011;77269;49.892;17.884;2024-03-23T03:41:32;6.80;;;4.93;;
86604;SDS011;77269;49.892;17.884;2024-03-23T03:42:22;6.45;;;4.55;;
86604;SDS011;77269;49.892;17.884;2024-03-23T03:43:13;8.25;;;5.40;;
86604;SDS011;77269;49.892;17.884;2024-03-23T03:44:03;7.28;;;5.45;;
86604;SDS011;77269;49.892;17.884;2024-03-23T03:44:54;7.13;;;5.13;;
86604;SDS011;77269;49.892;17.884;2024-03-23T03:45:51;6.90;;;4.78;;
86604;SDS011;77269;49.892;17.884;2024-03-23T03:46:45;6.35;;;4.90;;
86604;SDS011;77269;49.892;17.884;2024-03-23T03:47:35;7.30;;;5.07;;
86604;SDS011;77269;49.892;17.884;2024-03-23T03:48:26;5.38;;;4.30;;
86604;SDS011;77269;49.892;17.884;2024-03-23T03:49:17;5.80;;;4.60;;
86604;SDS011;77269;49.892;17.884;2024-03-23T03:50:07;7.15;;;4.85;;
86604;SDS011;77269;49.892;17.884;2024-03-23T03:50:58;8.10;;;5.20;;
86604;SDS011;77269;49.892;17.884;2024-03-23T03:51:48;8.00;;;5.45;;
86604;SDS011;77269;49.892;17.884;2024-03-23T03:52:39;6.97;;;4.90;;
86604;SDS011;77269;49.892;17.884;2024-03-23T03:53:29;7.90;;;5.38;;
86604;SDS011;77269;49.892;17.884;2024-03-23T03:54:20;8.20;;;5.70;;
86604;SDS011;77269;49.892;17.884;2024-03-23T03:55:12;6.53;;;5.15;;
86604;SDS011;77269;49.892;17.884;2024-03-23T03:56:03;7.82;;;4.97;;
86604;SDS011;77269;49.892;17.884;2024-03-23T03:56:54;7.93;;;5.18;;
86604;SDS011;77269;49.892;17.884;2024-03-23T03:57:44;8.00;;;5.55;;
86604;SDS011;77269;49.892;17.884;2024-03-23T03:58:35;8.50;;;5.95;;
86604;SDS011;77269;49.892;17.884;2024-03-23T03:59:26;7.68;;;5.70;;
86604;SDS011;77269;49.892;17.884;2024-03-23T04:00:16;6.45;;;4.68;;
86604;SDS011;77269;49.892;17.884;2024-03-23T04:01:07;7.28;;;4.95;;
86604;SDS011;77269;49.892;17.884;2024-03-23T04:01:57;6.80;;;4.55;;
86604;SDS011;77269;49.892;17.884;2024-03-23T04:02:48;7.70;;;5.22;;
86604;SDS011;77269;49.892;17.884;2024-03-23T04:03:38;7.53;;;4.97;;
86604;SDS011;77269;49.892;17.884;2024-03-23T04:04:29;6.05;;;4.80;;
86604;SDS011;77269;49.892;17.884;2024-03-23T04:05:20;8.30;;;4.85;;
86604;SDS011;77269;49.892;17.884;2024-03-23T04:06:10;5.90;;;4.70;;
86604;SDS011;77269;49.892;17.884;2024-03-23T04:07:01;6.72;;;4.50;;
86604;SDS011;77269;49.892;17.884;2024-03-23T04:07:52;6.18;;;4.20;;
86604;SDS011;77269;49.892;17.884;2024-03-23T04:08:42;7.93;;;4.65;;
86604;SDS011;77269;49.892;17.884;2024-03-23T04:09:33;7.30;;;4.68;;
86604;SDS011;77269;49.892;17.884;2024-03-23T04:10:23;5.78;;;4.20;;
86604;SDS011;77269;49.892;17.884;2024-03-23T04:11:14;6.30;;;4.53;;
86604;SDS011;77269;49.892;17.884;2024-03-23T04:12:04;5.95;;;4.43;;
86604;SDS011;77269;49.892;17.884;2024-03-23T04:12:55;6.40;;;4.35;;
86604;SDS011;77269;49.892;17.884;2024-03-23T04:13:46;6.28;;;4.18;;
86604;SDS011;77269;49.892;17.884;2024-03-23T04:14:36;7.90;;;5.63;;
86604;SDS011;77269;49.892;17.884;2024-03-23T04:15:27;8.05;;;5.72;;
86604;SDS011;77269;49.892;17.884;2024-03-23T04:16:31;6.05;;;4.60;;
86604;SDS011;77269;49.892;17.884;2024-03-23T04:17:24;6.35;;;4.57;;
86604;SDS011;77269;49.892;17.884;2024-03-23T04:18:14;7.65;;;5.13;;
86604;SDS011;77269;49.892;17.884;2024-03-23T04:19:05;6.47;;;4.70;;
86604;SDS011;77269;49.892;17.884;2024-03-23T04:19:56;5.82;;;4.45;;
86604;SDS011;77269;49.892;17.884;2024-03-23T04:20:46;6.28;;;4.68;;
86604;SDS011;77269;49.892;17.884;2024-03-23T04:21:37;7.97;;;5.30;;
86604;SDS011;77269;49.892;17.884;2024-03-23T04:22:28;6.03;;;4.63;;
86604;SDS011;77269;49.892;17.884;2024-03-23T04:23:18;6.22;;;4.40;;
86604;SDS011;77269;49.892;17.884;2024-03-23T04:24:09;7.05;;;4.97;;
86604;SDS011;77269;49.892;17.884;2024-03-23T04:24:59;8.75;;;4.78;;
86604;SDS011;77269;49.892;17.884;2024-03-23T04:25:50;7.25;;;4.93;;
86604;SDS011;77269;49.892;17.884;2024-03-23T04:26:41;6.88;;;4.72;;
86604;SDS011;77269;49.892;17.884;2024-03-23T04:27:34;6.88;;;5.03;;
86604;SDS011;77269;49.892;17.884;2024-03-23T04:28:25;6.50;;;4.90;;
86604;SDS011;77269;49.892;17.884;2024-03-23T04:29:16;6.40;;;4.57;;
86604;SDS011;77269;49.892;17.884;2024-03-23T04:30:06;7.68;;;4.70;;
86604;SDS011;77269;49.892;17.884;2024-03-23T04:30:57;7.85;;;4.65;;
86604;SDS011;77269;49.892;17.884;2024-03-23T04:31:48;7.05;;;5.13;;
86604;SDS011;77269;49.892;17.884;2024-03-23T04:32:38;7.20;;;4.85;;
86604;SDS011;77269;49.892;17.884;2024-03-23T04:33:28;6.13;;;4.45;;
86604;SDS011;77269;49.892;17.884;2024-03-23T04:34:19;6.40;;;4.50;;
86604;SDS011;77269;49.892;17.884;2024-03-23T04:35:09;6.65;;;4.85;;
86604;SDS011;77269;49.892;17.884;2024-03-23T04:36:00;7.95;;;5.20;;
86604;SDS011;77269;49.892;17.884;2024-03-23T04:36:50;6.88;;;4.85;;
86604;SDS011;77269;49.892;17.884;2024-03-23T04:37:41;7.40;;;5.13;;
86604;SDS011;77269;49.892;17.884;2024-03-23T04:38:31;6.57;;;4.88;;
86604;SDS011;77269;49.892;17.884;2024-03-23T04:39:22;7.85;;;4.88;;
86604;SDS011;77269;49.892;17.884;2024-03-23T04:40:13;8.07;;;5.03;;
86604;SDS011;77269;49.892;17.884;2024-03-23T04:41:03;6.70;;;5.15;;
86604;SDS011;77269;49.892;17.884;2024-03-23T04:41:54;6.78;;;4.90;;
86604;SDS011;77269;49.892;17.884;2024-03-23T04:42:44;7.50;;;5.05;;
86604;SDS011;77269;49.892;17.884;2024-03-23T04:43:35;6.10;;;4.88;;
86604;SDS011;77269;49.892;17.884;2024-03-23T04:44:25;5.88;;;4.95;;
86604;SDS011;77269;49.892;17.884;2024-03-23T04:45:16;6.85;;;5.00;;
86604;SDS011;77269;49.892;17.884;2024-03-23T04:46:06;7.30;;;5.03;;
86604;SDS011;77269;49.892;17.884;2024-03-23T04:46:57;7.13;;;5.00;;
86604;SDS011;77269;49.892;17.884;2024-03-23T04:47:48;6.18;;;4.72;;
86604;SDS011;77269;49.892;17.884;2024-03-23T04:48:38;7.50;;;5.22;;
86604;SDS011;77269;49.892;17.884;2024-03-23T04:49:28;7.10;;;4.95;;
86604;SDS011;77269;49.892;17.884;2024-03-23T04:50:19;7.78;;;5.25;;
86604;SDS011;77269;49.892;17.884;2024-03-23T04:51:10;7.88;;;6.05;;
86604;SDS011;77269;49.892;17.884;2024-03-23T04:52:01;7.90;;;5.25;;
86604;SDS011;77269;49.892;17.884;2024-03-23T04:52:51;7.68;;;5.43;;
86604;SDS011;77269;49.892;17.884;2024-03-23T04:53:42;8.60;;;6.05;;
86604;SDS011;77269;49.892;17.884;2024-03-23T04:54:32;7.40;;;5.03;;
86604;SDS011;77269;49.892;17.884;2024-03-23T04:55:23;8.10;;;5.68;;
86604;SDS011;77269;49.892;17.884;2024-03-23T04:56:14;7.05;;;4.93;;
86604;SDS011;77269;49.892;17.884;2024-03-23T04:57:05;6.57;;;5.22;;
86604;SDS011;77269;49.892;17.884;2024-03-23T04:57:55;6.63;;;5.03;;
86604;SDS011;77269;49.892;17.884;2024-03-23T04:58:46;6.20;;;4.70;;
86604;SDS011;77269;49.892;17.884;2024-03-23T04:59:36;7.50;;;5.28;;
86604;SDS011;77269;49.892;17.884;2024-03-23T05:00:27;6.90;;;5.00;;
86604;SDS011;77269;49.892;17.884;2024-03-23T05:01:18;6.75;;;5.20;;
86604;SDS011;77269;49.892;17.884;2024-03-23T05:02:08;6.30;;;5.05;;
86604;SDS011;77269;49.892;17.884;2024-03-23T05:02:59;7.00;;;5.30;;
86604;SDS011;77269;49.892;17.884;2024-03-23T05:03:50;6.60;;;4.70;;
86604;SDS011;77269;49.892;17.884;2024-03-23T05:04:40;7.57;;;5.57;;
86604;SDS011;77269;49.892;17.884;2024-03-23T05:05:31;7.93;;;5.38;;
86604;SDS011;77269;49.892;17.884;2024-03-23T05:06:22;6.15;;;4.63;;
86604;SDS011;77269;49.892;17.884;2024-03-23T05:07:12;7.30;;;5.53;;
86604;SDS011;77269;49.892;17.884;2024-03-23T05:08:03;7.75;;;5.22;;
86604;SDS011;77269;49.892;17.884;2024-03-23T05:08:54;7.45;;;5.35;;
86604;SDS011;77269;49.892;17.884;2024-03-23T05:09:44;6.85;;;5.05;;
86604;SDS011;77269;49.892;17.884;2024-03-23T05:10:35;6.78;;;5.32;;
86604;SDS011;77269;49.892;17.884;2024-03-23T05:11:25;7.13;;;5.20;;
86604;SDS011;77269;49.892;17.884;2024-03-23T05:12:16;7.03;;;4.97;;
86604;SDS011;77269;49.892;17.884;2024-03-23T05:13:06;7.07;;;4.95;;
86604;SDS011;77269;49.892;17.884;2024-03-23T05:13:56;8.43;;;5.60;;
86604;SDS011;77269;49.892;17.884;2024-03-23T05:14:47;7.75;;;5.57;;
86604;SDS011;77269;49.892;17.884;2024-03-23T05:15:38;7.25;;;5.22;;
86604;SDS011;77269;49.892;17.884;2024-03-23T05:16:28;6.18;;;5.10;;
86604;SDS011;77269;49.892;17.884;2024-03-23T05:17:18;7.50;;;5.20;;
86604;SDS011;77269;49.892;17.884;2024-03-23T05:18:09;7.93;;;5.55;;
86604;SDS011;77269;49.892;17.884;2024-03-23T05:19:00;7.95;;;5.30;;
86604;SDS011;77269;49.892;17.884;2024-03-23T05:19:50;7.07;;;5.35;;
86604;SDS011;77269;49.892;17.884;2024-03-23T05:20:41;8.40;;;5.55;;
86604;SDS011;77269;49.892;17.884;2024-03-23T05:21:31;7.78;;;5.38;;
86604;SDS011;77269;49.892;17.884;2024-03-23T05:22:22;6.78;;;4.75;;
86604;SDS011;77269;49.892;17.884;2024-03-23T05:23:12;8.23;;;5.80;;
86604;SDS011;77269;49.892;17.884;2024-03-23T05:24:03;7.85;;;5.35;;
86604;SDS011;77269;49.892;17.884;2024-03-23T05:24:54;7.38;;;5.53;;
86604;SDS011;77269;49.892;17.884;2024-03-23T05:25:44;7.97;;;5.70;;
86604;SDS011;77269;49.892;17.884;2024-03-23T05:26:35;6.20;;;4.97;;
86604;SDS011;77269;49.892;17.884;2024-03-23T05:27:26;7.53;;;5.25;;
86604;SDS011;77269;49.892;17.884;2024-03-23T05:28:16;7.68;;;5.43;;
86604;SDS011;77269;49.892;17.884;2024-03-23T05:29:06;7.82;;;5.50;;
86604;SDS011;77269;49.892;17.884;2024-03-23T05:29:57;7.68;;;5.63;;
86604;SDS011;77269;49.892;17.884;2024-03-23T05:30:53;7.63;;;5.80;;
86604;SDS011;77269;49.892;17.884;2024-03-23T05:31:44;8.05;;;6.18;;
86604;SDS011;77269;49.892;17.884;2024-03-23T05:32:39;7.47;;;5.47;;
86604;SDS011;77269;49.892;17.884;2024-03-23T05:33:30;6.35;;;5.07;;
86604;SDS011;77269;49.892;17.884;2024-03-23T05:34:20;5.75;;;4.45;;
86604;SDS011;77269;49.892;17.884;2024-03-23T05:35:11;8.23;;;5.70;;
86604;SDS011;77269;49.892;17.884;2024-03-23T05:36:01;8.68;;;6.30;;
86604;SDS011;77269;49.892;17.884;2024-03-23T05:36:52;10.05;;;6.70;;
86604;SDS011;77269;49.892;17.884;2024-03-23T05:37:42;8.20;;;5.80;;
86604;SDS011;77269;49.892;17.884;2024-03-23T05:38:33;7.70;;;5.97;;
86604;SDS011;77269;49.892;17.884;2024-03-23T05:39:23;9.65;;;6.60;;
86604;SDS011;77269;49.892;17.884;2024-03-23T05:40:14;8.88;;;6.30;;
86604;SDS011;77269;49.892;17.884;2024-03-23T05:41:04;9.77;;;6.57;;
86604;SDS011;77269;49.892;17.884;2024-03-23T05:41:55;9.85;;;6.45;;
86604;SDS011;77269;49.892;17.884;2024-03-23T05:42:45;7.75;;;5.70;;
86604;SDS011;77269;49.892;17.884;2024-03-23T05:43:36;8.07;;;5.60;;
86604;SDS011;77269;49.892;17.884;2024-03-23T05:44:26;7.28;;;5.53;;
86604;SDS011;77269;49.892;17.884;2024-03-23T05:45:17;11.18;;;6.93;;
86604;SDS011;77269;49.892;17.884;2024-03-23T05:46:08;10.38;;;6.40;;
86604;SDS011;77269;49.892;17.884;2024-03-23T05:46:58;9.57;;;6.50;;
86604;SDS011;77269;49.892;17.884;2024-03-23T05:47:48;7.80;;;5.47;;
86604;SDS011;77269;49.892;17.884;2024-03-23T05:48:39;7.90;;;5.47;;
86604;SDS011;77269;49.892;17.884;2024-03-23T05:49:29;7.47;;;5.28;;
86604;SDS011;77269;49.892;17.884;2024-03-23T05:50:20;7.43;;;5.20;;
86604;SDS011;77269;49.892;17.884;2024-03-23T05:51:10;7.72;;;5.40;;
86604;SDS011;77269;49.892;17.884;2024-03-23T05:52:01;8.57;;;5.95;;
86604;SDS011;77269;49.892;17.884;2024-03-23T05:52:51;8.23;;;6.10;;
86604;SDS011;77269;49.892;17.884;2024-03-23T05:53:42;8.95;;;6.03;;
86604;SDS011;77269;49.892;17.884;2024-03-23T05:54:33;8.52;;;6.03;;
86604;SDS011;77269;49.892;17.884;2024-03-23T05:55:23;7.90;;;5.50;;